Time;durP1;ratioP1;P1;durP2;ratioP2;P2;SDS_P1;SDS_P2;PMS_P1;PMS_P2;Temp;Humidity;BMP_temperature;BMP_pressure;BME280_temperature;BME280_humidity;BME280_pressure;Samples;Min_cycle;Max_cycle;Signal;HPM_P1;HPM_P2
2022/05/15 00:00:41;;;;;;;;;;;;;;;16.97;76.98;100872.63;6154881;23;19923;-88
2022/05/15 00:03:11;;;;;;;;;;;;;;;16.91;78.37;100878.03;6122655;23;19916;-90
2022/05/15 00:05:37;;;;;;;;;;;;;;;16.90;77.90;100879.88;6175510;23;20253;-89
2022/05/15 00:08:08;;;;;;;;;;;;;;;16.82;77.95;100885.47;6207959;23;19916;-89
2022/05/15 00:10:33;;;;;;;;;;;;;;;16.65;79.65;100883.00;6211074;23;19916;-89
2022/05/15 00:12:59;;;;;;;;;;;;;;;16.56;80.59;100881.47;6213549;23;19912;-90
2022/05/15 00:15:24;;;;;;;;;;;;;;;16.53;80.52;100873.72;6223626;23;20021;-89
2022/05/15 00:17:49;;;;;;;;;;;;;;;16.55;80.36;100873.50;6187382;23;19927;-88
2022/05/15 00:20:16;;;;;;;;;;;;;;;16.55;80.65;100877.09;6210186;22;20401;-89
2022/05/15 00:22:45;;;;;;;;;;;;;;;16.50;80.95;100878.69;6209179;23;19916;-91
2022/05/15 00:25:13;;;;;;;;;;;;;;;16.43;80.91;100874.00;6213057;22;19995;-91
2022/05/15 00:27:39;;;;;;;;;;;;;;;16.42;80.61;100872.34;6223434;23;19966;-91
2022/05/15 00:30:06;;;;;;;;;;;;;;;16.39;80.66;100867.31;6214871;23;19916;-92
2022/05/15 00:32:34;;;;;;;;;;;;;;;16.34;80.45;100874.34;6220522;23;19922;-88
2022/05/15 00:35:02;;;;;;;;;;;;;;;16.34;80.59;100877.91;6217704;23;19940;-88
2022/05/15 00:37:29;;;;;;;;;;;;;;;16.30;80.50;100876.63;6232351;23;19903;-90
2022/05/15 00:39:57;;;;;;;;;;;;;;;16.40;80.07;100887.16;6213482;23;19912;-91
2022/05/15 00:42:23;;;;;;;;;;;;;;;16.40;79.72;100889.88;6221119;23;19945;-90
2022/05/15 00:44:51;;;;;;;;;;;;;;;16.42;79.80;100899.50;6194836;23;20307;-89
2022/05/15 00:47:19;;;;;;;;;;;;;;;16.39;79.69;100904.47;6217502;23;19971;-89
2022/05/15 00:49:45;;;;;;;;;;;;;;;16.40;81.00;100917.84;6207888;23;19988;-89
2022/05/15 00:52:12;;;;;;;;;;;;;;;16.49;81.34;100913.13;6184353;23;19920;-89
2022/05/15 00:54:44;;;;;;;;;;;;;;;16.59;80.64;100910.09;6198205;23;19914;-89
2022/05/15 00:57:26;;;;;;;;;;;;;;;16.56;79.36;100914.03;6215314;23;19916;-90
2022/05/15 01:00:12;;;;;;;;;;;;;;;16.51;79.12;100911.06;6209983;23;19965;-91
2022/05/15 01:02:40;;;;;;;;;;;;;;;16.46;80.22;100899.97;6185081;23;19916;-91
2022/05/15 01:05:08;;;;;;;;;;;;;;;16.48;80.11;100903.28;6205914;23;19951;-89
2022/05/15 01:07:36;;;;;;;;;;;;;;;16.44;80.74;100910.16;6208269;23;19916;-88
2022/05/15 01:10:09;;;;;;;;;;;;;;;16.41;80.44;100913.22;6209458;23;19994;-89
2022/05/15 01:12:35;;;;;;;;;;;;;;;16.45;80.75;100914.53;6207523;23;19994;-88
2022/05/15 01:15:11;;;;;;;;;;;;;;;16.47;80.88;100917.91;6187822;23;19915;-87
2022/05/15 01:17:40;;;;;;;;;;;;;;;16.54;81.17;100907.94;6181858;23;19994;-87
2022/05/15 01:20:07;;;;;;;;;;;;;;;16.54;80.91;100905.25;6207616;23;19980;-88
2022/05/15 01:22:37;;;;;;;;;;;;;;;16.61;81.01;100914.28;6211802;23;19973;-89
2022/05/15 01:25:03;;;;;;;;;;;;;;;16.64;80.48;100919.31;6209212;23;19911;-89
2022/05/15 01:27:29;;;;;;;;;;;;;;;16.67;79.90;100918.94;6212033;23;19926;-88
2022/05/15 01:29:57;;;;;;;;;;;;;;;16.66;79.80;100922.66;6212555;23;19923;-88
2022/05/15 01:32:31;;;;;;;;;;;;;;;16.68;79.96;100909.75;6207647;23;19923;-89
2022/05/15 01:34:59;;;;;;;;;;;;;;;16.64;80.42;100913.88;6208162;23;19911;-87
2022/05/15 01:37:48;;;;;;;;;;;;;;;16.76;79.54;100905.22;6210787;23;19943;-88
2022/05/15 01:40:13;;;;;;;;;;;;;;;16.76;78.79;100897.06;6215596;22;19916;-86
2022/05/15 01:42:40;;;;;;;;;;;;;;;16.76;78.66;100900.63;6208784;23;19912;-89
2022/05/15 01:45:09;;;;;;;;;;;;;;;16.80;77.97;100892.97;6216924;23;19912;-87
2022/05/15 01:47:36;;;;;;;;;;;;;;;16.83;77.84;100895.28;6229123;23;19912;-89
2022/05/15 01:50:07;;;;;;;;;;;;;;;16.84;78.10;100888.84;6211221;23;19912;-87
2022/05/15 01:52:33;;;;;;;;;;;;;;;16.84;77.82;100888.84;6210136;23;19916;-87
2022/05/15 01:55:07;;;;;;;;;;;;;;;16.86;78.54;100894.91;6215803;23;19900;-88
2022/05/15 01:57:34;;;;;;;;;;;;;;;16.89;78.12;100897.22;6225116;23;19981;-88
2022/05/15 02:00:01;;;;;;;;;;;;;;;16.91;78.21;100897.88;6208516;23;19912;-89
2022/05/15 02:02:30;;;;;;;;;;;;;;;16.95;77.88;100892.88;6201358;23;19997;-89
2022/05/15 02:04:56;;;;;;;;;;;;;;;16.98;77.52;100904.19;6210335;23;20015;-89
2022/05/15 02:07:23;;;;;;;;;;;;;;;17.05;77.44;100899.66;6185276;23;20419;-90
2022/05/15 02:09:49;;;;;;;;;;;;;;;17.04;77.30;100900.69;6209160;23;19920;-91
2022/05/15 02:12:15;;;;;;;;;;;;;;;17.03;77.33;100896.28;6212597;23;19964;-89
2022/05/15 02:14:40;;;;;;;;;;;;;;;17.04;77.45;100892.56;6211907;23;19919;-89
2022/05/15 02:17:14;;;;;;;;;;;;;;;16.93;76.90;100882.22;6219107;23;19922;-87
2022/05/15 02:19:40;;;;;;;;;;;;;;;17.06;77.66;100893.16;6223449;23;20392;-88
2022/05/15 02:22:06;;;;;;;;;;;;;;;17.11;76.76;100897.16;6209698;23;19912;-87
2022/05/15 02:24:33;;;;;;;;;;;;;;;17.09;77.16;100903.66;6213648;23;19900;-89
2022/05/15 02:27:03;;;;;;;;;;;;;;;17.15;76.56;100898.47;6209613;23;19912;-89
2022/05/15 02:29:30;;;;;;;;;;;;;;;17.15;76.27;100907.44;6183871;23;19977;-90
2022/05/15 02:31:56;;;;;;;;;;;;;;;17.13;76.71;100912.22;6213734;23;19918;-90
2022/05/15 02:34:22;;;;;;;;;;;;;;;17.09;77.24;100911.81;6195188;23;19927;-90
2022/05/15 02:36:49;;;;;;;;;;;;;;;17.17;77.53;100918.13;6184341;23;19912;-89
2022/05/15 02:39:14;;;;;;;;;;;;;;;17.14;77.50;100921.22;6202338;23;19912;-88
2022/05/15 02:41:42;;;;;;;;;;;;;;;17.29;77.76;100927.41;6186626;23;19920;-89
2022/05/15 02:44:13;;;;;;;;;;;;;;;17.25;77.58;100928.81;6207720;23;19990;-89
2022/05/15 02:46:42;;;;;;;;;;;;;;;17.29;78.01;100925.50;6221108;23;19912;-89
2022/05/15 02:51:58;;;;;;;;;;;;;;;17.23;78.21;100933.63;6210411;23;20774;-91
2022/05/15 02:54:25;;;;;;;;;;;;;;;17.13;77.91;100936.69;6185066;23;19925;-91
2022/05/15 02:56:59;;;;;;;;;;;;;;;17.19;75.51;100937.78;6212975;22;20303;-90
2022/05/15 02:59:25;;;;;;;;;;;;;;;17.29;75.18;100935.56;6189820;23;20347;-89
2022/05/15 03:01:50;;;;;;;;;;;;;;;17.36;74.17;100947.31;6209618;23;19912;-91
2022/05/15 03:04:39;;;;;;;;;;;;;;;17.36;72.58;100939.16;6209625;23;20317;-92
2022/05/15 03:07:25;;;;;;;;;;;;;;;17.43;74.16;100945.47;6214884;23;19923;-92
2022/05/15 03:10:00;;;;;;;;;;;;;;;17.50;73.67;100943.63;6213954;23;20294;-92
2022/05/15 03:12:34;;;;;;;;;;;;;;;17.50;73.19;100946.34;6211534;23;19911;-90
2022/05/15 03:15:22;;;;;;;;;;;;;;;17.39;73.29;100955.03;6214438;23;20004;-92
2022/05/15 03:17:51;;;;;;;;;;;;;;;17.56;73.67;100955.59;6210067;23;19917;-91
2022/05/15 03:23:14;;;;;;;;;;;;;;;17.66;74.02;100972.38;6218674;23;19969;-89
2022/05/15 03:28:43;;;;;;;;;;;;;;;17.55;77.31;100975.66;6230458;23;19938;-91
2022/05/15 03:31:12;;;;;;;;;;;;;;;17.49;78.07;100977.31;6210055;23;19905;-87
2022/05/15 03:33:38;;;;;;;;;;;;;;;17.56;78.21;100981.91;6197469;23;19912;-87
2022/05/15 03:36:14;;;;;;;;;;;;;;;17.61;77.55;100984.91;6213363;23;20065;-92
2022/05/15 03:39:25;;;;;;;;;;;;;;;;;;;;;
2022/05/15 03:50:56;;;;;;;;;;;;;;;17.78;77.80;100986.25;6223083;22;20015;-93
2022/05/15 03:56:53;;;;;;;;;;;;;;;17.84;77.36;100990.94;6357945;22;19933;-88
2022/05/15 03:59:37;;;;;;;;;;;;;;;;;;;;;
2022/05/15 04:02:06;;;;;;;;;;;;;;;18.04;77.60;101006.50;6337299;22;20004;-90
2022/05/15 04:04:33;;;;;;;;;;;;;;;18.00;77.37;101005.22;6285699;22;20301;-91
2022/05/15 04:09:55;;;;;;;;;;;;;;;18.09;75.41;101015.72;6343250;22;19972;-92
2022/05/15 04:12:21;;;;;;;;;;;;;;;18.10;74.66;101011.16;6283823;22;19987;-92
2022/05/15 04:18:19;;;;;;;;;;;;;;;18.13;75.63;101010.75;6339762;22;19960;-92
2022/05/15 04:20:48;;;;;;;;;;;;;;;18.12;75.90;101020.78;6338560;22;19917;-90
2022/05/15 04:23:14;;;;;;;;;;;;;;;18.07;76.80;101023.25;6323528;22;19914;-91
2022/05/15 04:25:46;;;;;;;;;;;;;;;18.07;76.79;101027.84;6314961;22;19921;-90
2022/05/15 04:28:20;;;;;;;;;;;;;;;18.13;76.49;101029.78;6311380;22;20324;-91
2022/05/15 04:30:58;;;;;;;;;;;;;;;18.20;76.65;101029.81;6342873;22;19911;-92
2022/05/15 04:33:23;;;;;;;;;;;;;;;18.27;76.84;101031.53;6284529;22;20398;-90
2022/05/15 04:39:13;;;;;;;;;;;;;;;18.31;75.47;101032.81;6339910;22;20263;-91
2022/05/15 04:44:42;;;;;;;;;;;;;;;18.38;76.41;101038.28;6341912;22;19918;-92
2022/05/15 04:50:10;;;;;;;;;;;;;;;18.27;74.85;101038.84;6363864;22;19972;-91
2022/05/15 04:52:45;;;;;;;;;;;;;;;18.51;74.33;101045.66;6314605;22;20291;-92
2022/05/15 04:55:28;;;;;;;;;;;;;;;18.66;74.31;101040.03;6260404;22;19916;-90
2022/05/15 04:58:07;;;;;;;;;;;;;;;18.82;75.19;101047.03;6223928;23;19923;-92
2022/05/15 05:00:57;;;;;;;;;;;;;;;18.88;72.18;101051.66;6226683;23;20325;-95
2022/05/15 05:04:04;;;;;;;;;;;;;;;18.87;72.41;101053.56;6225909;23;19912;-93
2022/05/15 05:06:43;;;;;;;;;;;;;;;18.84;71.67;101050.38;6220136;23;19928;-94
2022/05/15 05:09:50;;;;;;;;;;;;;;;18.82;71.32;101058.75;6213237;23;19916;-91
2022/05/15 05:12:16;;;;;;;;;;;;;;;18.85;71.19;101052.09;6218794;23;19919;-92
2022/05/15 05:14:47;;;;;;;;;;;;;;;18.87;71.81;101063.59;6219692;23;20395;-87
2022/05/15 05:17:17;;;;;;;;;;;;;;;18.86;70.70;101059.19;6188945;23;19950;-92
2022/05/15 05:19:53;;;;;;;;;;;;;;;18.89;71.65;101062.31;6186182;23;19960;-91
2022/05/15 05:22:25;;;;;;;;;;;;;;;18.87;70.86;101055.41;6209608;23;19965;-93
2022/05/15 05:24:51;;;;;;;;;;;;;;;19.01;70.75;101056.28;6212666;23;19931;-93
2022/05/15 05:27:22;;;;;;;;;;;;;;;19.13;70.48;101049.19;6208611;23;19919;-93
2022/05/15 05:29:47;;;;;;;;;;;;;;;19.03;68.14;101054.19;6209592;23;19994;-88
2022/05/15 05:32:14;;;;;;;;;;;;;;;19.10;67.67;101058.59;6216394;23;19919;-89
2022/05/15 05:34:44;;;;;;;;;;;;;;;19.25;67.40;101057.59;6222656;23;19940;-88
2022/05/15 05:37:17;;;;;;;;;;;;;;;19.33;68.49;101052.75;6210380;23;19916;-91
2022/05/15 05:39:56;;;;;;;;;;;;;;;19.37;67.79;101054.03;6164089;23;19980;-91
2022/05/15 05:42:21;;;;;;;;;;;;;;;19.43;66.29;101054.22;6185434;23;20313;-91
2022/05/15 05:44:48;;;;;;;;;;;;;;;19.49;66.45;101064.31;6208605;23;19923;-91
2022/05/15 05:47:24;;;;;;;;;;;;;;;19.66;66.07;101059.25;6215545;22;19931;-92
2022/05/15 05:50:08;;;;;;;;;;;;;;;19.85;66.15;101063.88;6231455;23;19921;-93
2022/05/15 05:52:36;;;;;;;;;;;;;;;20.01;65.48;101062.56;6219257;23;19917;-91
2022/05/15 05:55:04;;;;;;;;;;;;;;;20.33;65.16;101065.44;6211780;23;19916;-91
2022/05/15 05:57:31;;;;;;;;;;;;;;;20.58;65.54;101068.28;6219404;23;19919;-91
2022/05/15 06:00:10;;;;;;;;;;;;;;;20.72;64.70;101067.19;6234960;23;19926;-93
2022/05/15 06:02:50;;;;;;;;;;;;;;;20.75;65.79;101069.47;6223295;23;19938;-93
2022/05/15 06:05:19;;;;;;;;;;;;;;;20.86;63.72;101065.19;6216941;23;19912;-93
2022/05/15 06:07:44;;;;;;;;;;;;;;;21.18;64.58;101066.03;6215740;23;19916;-93
2022/05/15 06:10:13;;;;;;;;;;;;;;;21.57;63.47;101071.47;6192816;23;20044;-92
2022/05/15 06:12:44;;;;;;;;;;;;;;;22.26;60.91;101075.00;6228203;23;19912;-90
2022/05/15 06:15:13;;;;;;;;;;;;;;;22.50;60.96;101065.00;6210967;23;19915;-90
2022/05/15 06:17:45;;;;;;;;;;;;;;;22.54;60.99;101072.53;6211131;23;19912;-90
2022/05/15 06:20:14;;;;;;;;;;;;;;;22.81;60.96;101061.25;6214040;23;19931;-91
2022/05/15 06:23:18;;;;;;;;;;;;;;;23.16;58.73;101066.03;6211075;23;19999;-92
2022/05/15 06:25:57;;;;;;;;;;;;;;;23.42;58.51;101067.53;6213164;23;19999;-90
2022/05/15 06:28:26;;;;;;;;;;;;;;;23.31;58.38;101060.09;6212922;23;19912;-90
2022/05/15 06:30:52;;;;;;;;;;;;;;;23.18;58.00;101066.66;6208683;23;19919;-91
2022/05/15 06:33:17;;;;;;;;;;;;;;;23.08;57.59;101071.84;6182113;23;19916;-90
2022/05/15 06:35:44;;;;;;;;;;;;;;;23.31;58.30;101066.41;6209718;22;19987;-89
2022/05/15 06:38:10;;;;;;;;;;;;;;;23.17;57.93;101070.44;6205760;23;19916;-87
2022/05/15 06:40:40;;;;;;;;;;;;;;;23.35;57.18;101066.78;6192878;23;19916;-90
2022/05/15 06:43:07;;;;;;;;;;;;;;;23.47;56.46;101069.56;6232268;23;19907;-87
2022/05/15 06:45:37;;;;;;;;;;;;;;;23.89;55.15;101077.72;6234699;23;19920;-85
2022/05/15 06:48:04;;;;;;;;;;;;;;;23.31;55.22;101079.28;6232743;23;19912;-86
2022/05/15 06:50:31;;;;;;;;;;;;;;;23.17;54.70;101078.66;6236085;23;19911;-89
2022/05/15 06:52:57;;;;;;;;;;;;;;;23.52;54.48;101084.22;6231921;23;19920;-89
2022/05/15 06:55:24;;;;;;;;;;;;;;;23.75;53.38;101071.63;6190107;23;19951;-86
2022/05/15 06:57:51;;;;;;;;;;;;;;;23.89;53.76;101077.72;6217601;23;19923;-90
2022/05/15 07:00:18;;;;;;;;;;;;;;;23.95;53.13;101077.59;6229423;23;19932;-90
2022/05/15 07:02:46;;;;;;;;;;;;;;;24.13;52.63;101073.84;6224098;23;20312;-90
2022/05/15 07:05:11;;;;;;;;;;;;;;;24.88;53.21;101071.28;6210303;23;19916;-91
2022/05/15 07:07:38;;;;;;;;;;;;;;;24.94;50.54;101067.56;6210882;23;19916;-89
2022/05/15 07:10:06;;;;;;;;;;;;;;;25.36;51.60;101072.75;6208830;23;19942;-88
2022/05/15 07:12:48;;;;;;;;;;;;;;;25.63;49.73;101072.88;6208201;22;19923;-88
2022/05/15 07:15:17;;;;;;;;;;;;;;;25.78;48.80;101077.78;6208927;23;19919;-90
2022/05/15 07:17:44;;;;;;;;;;;;;;;25.78;46.37;101084.16;6212229;23;19911;-90
2022/05/15 07:20:12;;;;;;;;;;;;;;;25.45;48.51;101079.47;6184054;23;19916;-89
2022/05/15 07:22:38;;;;;;;;;;;;;;;25.57;47.62;101071.97;6207547;23;19912;-89
2022/05/15 07:25:05;;;;;;;;;;;;;;;25.88;47.69;101081.56;6186402;23;19923;-91
2022/05/15 07:27:30;;;;;;;;;;;;;;;26.05;46.59;101083.47;6208415;23;19920;-89
2022/05/15 07:30:01;;;;;;;;;;;;;;;26.02;46.62;101076.53;6210261;23;19912;-90
2022/05/15 07:32:30;;;;;;;;;;;;;;;25.80;45.74;101076.47;6208610;23;19912;-89
2022/05/15 07:34:58;;;;;;;;;;;;;;;26.17;46.01;101086.09;6209123;23;19916;-89
2022/05/15 07:37:34;;;;;;;;;;;;;;;25.90;45.82;101062.03;6197098;23;20011;-88
2022/05/15 07:40:07;;;;;;;;;;;;;;;25.84;46.46;101083.13;6223267;23;19920;-89
2022/05/15 07:42:37;;;;;;;;;;;;;;;26.21;44.64;101084.50;6218448;23;19923;-92
2022/05/15 07:45:10;;;;;;;;;;;;;;;25.73;45.42;101086.84;6187216;23;19915;-89
2022/05/15 07:47:35;;;;;;;;;;;;;;;25.59;45.55;101090.97;6210406;23;19911;-87
2022/05/15 07:50:08;;;;;;;;;;;;;;;25.63;45.75;101089.41;6187211;23;19912;-87
2022/05/15 07:52:38;;;;;;;;;;;;;;;26.05;45.06;101089.78;6227856;23;19916;-88
2022/05/15 07:55:06;;;;;;;;;;;;;;;25.39;45.96;101086.81;6215470;23;19915;-87
2022/05/15 07:57:34;;;;;;;;;;;;;;;25.77;44.01;101096.22;6187271;23;19922;-90
2022/05/15 08:00:03;;;;;;;;;;;;;;;26.22;45.05;101100.78;6219446;23;19925;-92
2022/05/15 08:02:28;;;;;;;;;;;;;;;26.53;42.50;101093.75;6229793;23;19918;-88
2022/05/15 08:10:24;;;;;;;;;;;;;;;27.17;40.85;101104.13;6209919;23;19965;-90
2022/05/15 08:12:56;;;;;;;;;;;;;;;27.35;39.37;101102.13;6183651;23;19943;-88
2022/05/15 08:15:22;;;;;;;;;;;;;;;27.65;40.33;101103.47;6206673;23;19916;-88
2022/05/15 08:17:49;;;;;;;;;;;;;;;27.66;39.12;101102.38;6206155;23;20253;-92
2022/05/15 08:25:53;;;;;;;;;;;;;;;27.13;40.05;101099.38;6212520;23;19922;-93
2022/05/15 08:28:22;;;;;;;;;;;;;;;27.14;39.79;101118.47;6206840;23;20282;-90
2022/05/15 08:30:47;;;;;;;;;;;;;;;27.07;39.81;101117.00;6208212;23;20006;-86
2022/05/15 08:33:15;;;;;;;;;;;;;;;27.05;39.93;101117.25;6184179;23;19919;-92
2022/05/15 08:35:41;;;;;;;;;;;;;;;27.08;40.16;101122.25;6211102;23;19995;-88
2022/05/15 08:38:07;;;;;;;;;;;;;;;27.32;39.77;101119.19;6209121;23;19912;-88
2022/05/15 08:40:45;;;;;;;;;;;;;;;27.42;39.32;101122.06;6210162;23;19927;-87
2022/05/15 08:43:12;;;;;;;;;;;;;;;27.38;39.15;101109.06;6209332;23;19908;-84
2022/05/15 08:45:47;;;;;;;;;;;;;;;28.15;37.92;101110.47;6206881;23;19920;-85
2022/05/15 08:48:19;;;;;;;;;;;;;;;27.89;38.87;101117.78;6207369;23;19919;-86
2022/05/15 08:50:49;;;;;;;;;;;;;;;27.37;40.60;101110.97;6211040;23;20360;-87
2022/05/15 08:53:19;;;;;;;;;;;;;;;28.55;37.94;101111.81;6226999;23;19914;-87
2022/05/15 08:55:47;;;;;;;;;;;;;;;29.57;36.58;101108.41;6210576;23;19977;-86
2022/05/15 08:58:35;;;;;;;;;;;;;;;29.63;36.21;101116.44;6207654;23;19939;-86
2022/05/15 09:01:02;;;;;;;;;;;;;;;29.66;35.80;101115.06;6197708;23;19956;-89
2022/05/15 09:03:28;;;;;;;;;;;;;;;29.05;37.00;101116.63;6219505;23;19916;-85
2022/05/15 09:06:03;;;;;;;;;;;;;;;30.12;35.79;101109.47;6210358;23;19912;-86
2022/05/15 09:08:49;;;;;;;;;;;;;;;30.39;34.61;101109.16;6210456;23;19983;-87
2022/05/15 09:11:42;;;;;;;;;;;;;;;30.13;34.50;101105.59;6208797;23;19961;-91
2022/05/15 09:14:15;;;;;;;;;;;;;;;30.42;35.03;101107.75;6210284;23;19912;-86
2022/05/15 09:17:02;;;;;;;;;;;;;;;31.30;33.43;101109.78;6208825;23;19916;-88
2022/05/15 09:19:27;;;;;;;;;;;;;;;30.80;34.21;101117.28;6207261;22;19927;-87
2022/05/15 09:21:59;;;;;;;;;;;;;;;30.75;34.38;101114.53;6206533;23;20060;-85
2022/05/15 09:24:30;;;;;;;;;;;;;;;30.67;34.93;101110.44;6202463;23;20253;-82
2022/05/15 09:26:58;;;;;;;;;;;;;;;32.73;31.73;101103.88;6205488;23;19948;-85
2022/05/15 09:29:34;;;;;;;;;;;;;;;34.35;30.39;101109.00;6207724;23;19912;-84
2022/05/15 09:32:06;;;;;;;;;;;;;;;34.10;29.43;101102.81;6208459;23;19923;-86
2022/05/15 09:34:34;;;;;;;;;;;;;;;32.71;31.53;101104.22;6212303;23;19960;-88
2022/05/15 09:40:05;;;;;;;;;;;;;;;30.11;35.72;101106.97;6210482;23;19938;-90
2022/05/15 09:45:21;;;;;;;;;;;;;;;30.52;35.04;101106.88;6213419;23;20271;-92
2022/05/15 09:48:01;;;;;;;;;;;;;;;30.54;35.05;101096.34;6213884;23;20591;-91
2022/05/15 09:50:47;;;;;;;;;;;;;;;31.28;33.68;101097.28;6223590;22;19916;-94
2022/05/15 09:53:19;;;;;;;;;;;;;;;31.43;32.76;101088.88;6231608;23;19917;-88
2022/05/15 09:55:57;;;;;;;;;;;;;;;30.76;34.41;101091.22;6223033;23;19920;-93
2022/05/15 09:58:28;;;;;;;;;;;;;;;30.52;35.56;101090.25;6213875;23;19912;-91
2022/05/15 10:01:18;;;;;;;;;;;;;;;29.59;36.18;101087.63;6214084;23;20332;-86
2022/05/15 10:03:47;;;;;;;;;;;;;;;28.77;37.01;101090.28;6212994;23;19921;-88
2022/05/15 10:06:12;;;;;;;;;;;;;;;28.56;37.83;101094.09;6217815;23;19916;-87
2022/05/15 10:08:39;;;;;;;;;;;;;;;28.64;37.44;101101.88;6182753;23;20260;-84
2022/05/15 10:11:22;;;;;;;;;;;;;;;28.22;39.05;101100.00;6206063;23;19926;-83
2022/05/15 10:13:52;;;;;;;;;;;;;;;29.59;36.67;101107.03;6209358;23;19920;-88
2022/05/15 10:16:26;;;;;;;;;;;;;;;30.59;34.26;101097.13;6208311;23;19918;-87
2022/05/15 10:19:00;;;;;;;;;;;;;;;29.78;35.42;101092.63;6204549;23;19919;-86
2022/05/15 10:21:38;;;;;;;;;;;;;;;28.49;37.95;101087.97;6205412;23;20040;-85
2022/05/15 10:24:06;;;;;;;;;;;;;;;28.21;38.38;101098.31;6208133;23;19919;-86
2022/05/15 10:26:58;;;;;;;;;;;;;;;28.04;39.29;101086.63;6206846;23;20259;-85
2022/05/15 10:29:29;;;;;;;;;;;;;;;27.53;40.21;101082.41;6209950;22;19912;-84
2022/05/15 10:32:01;;;;;;;;;;;;;;;27.87;39.26;101075.75;6205705;23;20391;-87
2022/05/15 10:34:29;;;;;;;;;;;;;;;27.92;39.42;101079.38;6216709;23;19916;-87
2022/05/15 10:37:11;;;;;;;;;;;;;;;27.46;39.12;101076.25;6207233;23;19989;-85
2022/05/15 10:39:39;;;;;;;;;;;;;;;26.69;40.29;101088.44;6207098;23;19912;-85
2022/05/15 10:42:10;;;;;;;;;;;;;;;26.67;41.04;101090.63;6209313;23;19916;-86
2022/05/15 10:44:54;;;;;;;;;;;;;;;25.90;43.09;101092.34;6208237;23;19916;-84
2022/05/15 10:47:21;;;;;;;;;;;;;;;26.80;41.66;101105.94;6206665;23;19919;-86
2022/05/15 10:50:07;;;;;;;;;;;;;;;26.66;41.44;101114.59;6208495;22;19916;-85
2022/05/15 10:52:42;;;;;;;;;;;;;;;25.65;41.97;101123.03;6217855;23;19912;-85
2022/05/15 10:57:58;;;;;;;;;;;;;;;25.15;43.83;101119.13;6212986;23;19942;-85
2022/05/15 11:00:31;;;;;;;;;;;;;;;24.55;43.76;101119.56;6209483;23;19919;-86
2022/05/15 11:03:00;;;;;;;;;;;;;;;24.00;45.29;101126.31;6218689;23;19933;-85
2022/05/15 11:05:35;;;;;;;;;;;;;;;23.94;46.91;101121.75;6226045;23;19916;-85
2022/05/15 11:08:25;;;;;;;;;;;;;;;23.92;46.67;101123.91;6211288;22;19916;-87
2022/05/15 11:11:08;;;;;;;;;;;;;;;24.73;45.78;101111.16;6212864;23;20004;-86
2022/05/15 11:13:37;;;;;;;;;;;;;;;24.50;45.39;101109.31;6212711;23;19912;-86
2022/05/15 11:16:06;;;;;;;;;;;;;;;24.59;45.30;101096.84;6214936;23;19919;-87
2022/05/15 11:18:53;;;;;;;;;;;;;;;24.21;46.69;101094.66;6209921;23;19947;-86
2022/05/15 11:21:30;;;;;;;;;;;;;;;24.01;47.29;101100.50;6209705;23;19987;-86
2022/05/15 11:24:11;;;;;;;;;;;;;;;24.27;47.10;101115.66;6208781;23;19965;-85
2022/05/15 11:26:48;;;;;;;;;;;;;;;24.44;47.65;101104.75;6185617;23;19999;-86
2022/05/15 11:29:16;;;;;;;;;;;;;;;24.47;46.33;101100.69;6183499;23;20332;-88
2022/05/15 11:31:54;;;;;;;;;;;;;;;24.38;46.32;101102.97;6209104;22;19919;-86
2022/05/15 11:34:19;;;;;;;;;;;;;;;24.46;45.89;101102.59;6208985;23;20351;-85
2022/05/15 11:36:47;;;;;;;;;;;;;;;24.61;45.77;101108.44;6213433;23;19994;-85
2022/05/15 11:39:17;;;;;;;;;;;;;;;24.62;45.63;101101.03;6186841;23;19919;-87
2022/05/15 11:42:10;;;;;;;;;;;;;;;24.16;46.78;101095.38;6210181;23;19912;-87
2022/05/15 11:44:37;;;;;;;;;;;;;;;23.25;49.46;101100.28;6210663;23;19990;-87
2022/05/15 11:47:32;;;;;;;;;;;;;;;23.55;48.91;101089.25;6209354;23;19995;-87
2022/05/15 11:50:00;;;;;;;;;;;;;;;23.58;49.52;101090.69;6210016;23;19912;-87
2022/05/15 11:52:43;;;;;;;;;;;;;;;23.37;49.79;101095.66;6207916;23;19912;-85
2022/05/15 11:55:27;;;;;;;;;;;;;;;23.04;50.40;101093.44;6226697;23;19916;-87
2022/05/15 11:57:53;;;;;;;;;;;;;;;23.06;50.71;101091.28;6212743;23;20050;-90
2022/05/15 12:00:24;;;;;;;;;;;;;;;22.81;51.70;101091.41;6222011;22;19908;-88
2022/05/15 12:02:50;;;;;;;;;;;;;;;22.36;51.90;101089.03;6191007;23;19933;-89
2022/05/15 12:05:30;;;;;;;;;;;;;;;22.37;53.61;101087.09;6233445;23;19911;-90
2022/05/15 12:07:56;;;;;;;;;;;;;;;22.31;54.17;101077.88;6213759;23;19923;-89
2022/05/15 12:10:43;;;;;;;;;;;;;;;22.00;55.40;101076.94;6189191;23;19923;-91
2022/05/15 12:13:13;;;;;;;;;;;;;;;21.91;55.70;101073.69;6168079;23;20007;-95
2022/05/15 12:15:40;;;;;;;;;;;;;;;22.10;56.08;101071.78;6214455;23;19919;-88
2022/05/15 12:18:29;;;;;;;;;;;;;;;22.02;55.97;101063.88;6211878;23;19995;-91
2022/05/15 12:30:07;;;;;;;;;;;;;;;21.70;54.30;101044.84;6214784;23;19964;-87
2022/05/15 12:32:51;;;;;;;;;;;;;;;21.82;53.80;101049.53;6210638;23;19912;-88
2022/05/15 12:35:17;;;;;;;;;;;;;;;21.82;53.41;101047.66;6213390;23;19912;-90
2022/05/15 12:38:00;;;;;;;;;;;;;;;21.87;53.23;101049.72;6210264;23;20352;-88
2022/05/15 12:40:31;;;;;;;;;;;;;;;21.97;52.52;101052.75;6208543;23;20518;-89
2022/05/15 12:43:02;;;;;;;;;;;;;;;22.26;52.27;101066.78;6211288;23;19980;-91
2022/05/15 12:45:27;;;;;;;;;;;;;;;22.31;50.38;101066.94;6191552;22;19953;-85
2022/05/15 12:48:02;;;;;;;;;;;;;;;22.66;48.96;101055.31;6185554;23;19912;-89
2022/05/15 12:50:36;;;;;;;;;;;;;;;22.97;47.76;101048.78;6212769;23;19918;-90
2022/05/15 12:53:03;;;;;;;;;;;;;;;22.84;46.91;101038.84;6212952;23;19919;-88
2022/05/15 12:55:35;;;;;;;;;;;;;;;22.94;46.78;101030.91;6231259;23;19904;-89
2022/05/15 12:58:05;;;;;;;;;;;;;;;23.22;45.47;101028.59;6225723;23;19930;-90
2022/05/15 13:00:38;;;;;;;;;;;;;;;23.13;45.65;101030.84;6190371;23;19908;-91
2022/05/15 13:03:05;;;;;;;;;;;;;;;23.42;44.95;101034.59;6189677;23;19916;-89
2022/05/15 13:05:32;;;;;;;;;;;;;;;24.00;43.96;101035.69;6209463;23;19900;-89
2022/05/15 13:07:59;;;;;;;;;;;;;;;24.37;43.24;101040.84;6188441;23;19938;-88
2022/05/15 13:10:25;;;;;;;;;;;;;;;24.37;42.27;101040.84;6185789;23;20345;-90
2022/05/15 13:13:17;;;;;;;;;;;;;;;24.76;41.97;101030.09;6185814;23;19919;-88
2022/05/15 13:15:45;;;;;;;;;;;;;;;25.12;40.52;101027.97;6211711;23;19939;-92
2022/05/15 13:18:13;;;;;;;;;;;;;;;25.16;40.52;101026.41;6232339;23;20236;-91
2022/05/15 13:20:39;;;;;;;;;;;;;;;24.98;40.81;101022.81;6234877;23;19904;-90
2022/05/15 13:23:06;;;;;;;;;;;;;;;25.10;41.31;101024.63;6192014;23;19938;-91
2022/05/15 13:25:36;;;;;;;;;;;;;;;25.09;41.81;101017.47;6189429;23;19919;-91
2022/05/15 13:28:01;;;;;;;;;;;;;;;24.90;41.71;101014.97;6225022;23;19940;-94
2022/05/15 13:30:28;;;;;;;;;;;;;;;24.81;42.14;101014.53;6218656;23;19919;-90
2022/05/15 13:32:59;;;;;;;;;;;;;;;24.81;40.96;101020.03;6185210;23;20228;-90
2022/05/15 13:35:25;;;;;;;;;;;;;;;24.54;40.20;101018.97;6211099;23;20363;-92
2022/05/15 13:37:53;;;;;;;;;;;;;;;24.55;40.68;101021.47;6213254;23;19991;-90
2022/05/15 13:43:28;;;;;;;;;;;;;;;23.53;43.45;101025.53;6209031;23;20314;-89
2022/05/15 13:45:53;;;;;;;;;;;;;;;23.75;43.61;101033.19;6217550;23;19950;-90
2022/05/15 13:48:22;;;;;;;;;;;;;;;23.62;43.12;101036.97;6211043;23;19912;-87
2022/05/15 13:50:55;;;;;;;;;;;;;;;23.77;44.19;101042.03;6208332;23;19911;-85
2022/05/15 13:53:31;;;;;;;;;;;;;;;23.44;44.77;101043.44;6214205;22;20021;-82
2022/05/15 13:56:03;;;;;;;;;;;;;;;23.09;44.53;101048.84;6222252;23;19916;-91
2022/05/15 13:58:40;;;;;;;;;;;;;;;22.83;45.70;101053.63;6223651;23;20351;-90
2022/05/15 14:01:19;;;;;;;;;;;;;;;22.72;46.22;101046.19;6211352;23;19987;-88
2022/05/15 14:03:55;;;;;;;;;;;;;;;22.38;45.27;101056.72;6243264;22;19912;-85
2022/05/15 14:06:25;;;;;;;;;;;;;;;22.45;46.90;101045.69;6196500;23;19904;-90
2022/05/15 14:08:58;;;;;;;;;;;;;;;22.39;47.40;101047.47;6217510;23;19976;-84